sensor_id;sensor_type;location;lat;lon;timestamp;P1;durP1;ratioP1;P2;durP2;ratioP2
9547;SDS011;4812;51.992;8.648;2022-12-16T00:01:03;23.73;;;15.43;;
9547;SDS011;4812;51.992;8.648;2022-12-16T00:03:33;27.77;;;17.33;;
9547;SDS011;4812;51.992;8.648;2022-12-16T00:06:02;31.57;;;18.97;;
9547;SDS011;4812;51.992;8.648;2022-12-16T00:08:33;28.60;;;17.63;;
9547;SDS011;4812;51.992;8.648;2022-12-16T00:11:02;24.17;;;15.70;;
9547;SDS011;4812;51.992;8.648;2022-12-16T00:13:31;27.83;;;17.77;;
9547;SDS011;4812;51.992;8.648;2022-12-16T00:16:02;22.27;;;15.17;;
9547;SDS011;4812;51.992;8.648;2022-12-16T00:18:31;27.07;;;16.83;;
9547;SDS011;4812;51.992;8.648;2022-12-16T00:21:00;22.17;;;13.70;;
9547;SDS011;4812;51.992;8.648;2022-12-16T00:23:27;27.97;;;15.87;;
9547;SDS011;4812;51.992;8.648;2022-12-16T00:25:56;23.70;;;14.50;;
9547;SDS011;4812;51.992;8.648;2022-12-16T00:28:24;27.23;;;17.00;;
9547;SDS011;4812;51.992;8.648;2022-12-16T00:30:51;34.40;;;16.83;;
9547;SDS011;4812;51.992;8.648;2022-12-16T00:33:20;26.47;;;16.53;;
9547;SDS011;4812;51.992;8.648;2022-12-16T00:35:49;25.33;;;15.40;;
9547;SDS011;4812;51.992;8.648;2022-12-16T00:38:20;23.23;;;15.50;;
9547;SDS011;4812;51.992;8.648;2022-12-16T00:40:49;27.40;;;16.33;;
9547;SDS011;4812;51.992;8.648;2022-12-16T00:43:17;29.33;;;14.80;;
9547;SDS011;4812;51.992;8.648;2022-12-16T00:45:46;25.43;;;14.07;;
9547;SDS011;4812;51.992;8.648;2022-12-16T00:48:14;31.83;;;16.07;;
9547;SDS011;4812;51.992;8.648;2022-12-16T00:50:43;25.83;;;14.27;;
9547;SDS011;4812;51.992;8.648;2022-12-16T00:53:12;31.10;;;15.97;;
9547;SDS011;4812;51.992;8.648;2022-12-16T00:55:41;22.73;;;15.03;;
9547;SDS011;4812;51.992;8.648;2022-12-16T00:58:08;23.17;;;15.37;;
9547;SDS011;4812;51.992;8.648;2022-12-16T01:00:35;27.30;;;15.27;;
9547;SDS011;4812;51.992;8.648;2022-12-16T01:03:03;25.43;;;15.47;;
9547;SDS011;4812;51.992;8.648;2022-12-16T01:05:31;30.57;;;15.67;;
9547;SDS011;4812;51.992;8.648;2022-12-16T01:07:58;28.97;;;15.60;;
9547;SDS011;4812;51.992;8.648;2022-12-16T01:10:26;26.00;;;14.73;;
9547;SDS011;4812;51.992;8.648;2022-12-16T01:12:55;24.80;;;15.47;;
9547;SDS011;4812;51.992;8.648;2022-12-16T01:15:22;23.17;;;13.93;;
9547;SDS011;4812;51.992;8.648;2022-12-16T01:17:49;27.33;;;15.87;;
9547;SDS011;4812;51.992;8.648;2022-12-16T01:20:17;24.90;;;14.27;;
9547;SDS011;4812;51.992;8.648;2022-12-16T01:22:45;24.47;;;15.10;;
9547;SDS011;4812;51.992;8.648;2022-12-16T01:25:12;23.63;;;15.00;;
9547;SDS011;4812;51.992;8.648;2022-12-16T01:27:40;19.20;;;14.03;;
9547;SDS011;4812;51.992;8.648;2022-12-16T01:30:10;28.53;;;15.90;;
9547;SDS011;4812;51.992;8.648;2022-12-16T01:32:38;22.10;;;15.67;;
9547;SDS011;4812;51.992;8.648;2022-12-16T01:35:05;29.90;;;15.37;;
9547;SDS011;4812;51.992;8.648;2022-12-16T01:37:53;28.00;;;14.80;;
9547;SDS011;4812;51.992;8.648;2022-12-16T01:40:21;22.53;;;14.27;;
9547;SDS011;4812;51.992;8.648;2022-12-16T01:42:50;25.43;;;14.77;;
9547;SDS011;4812;51.992;8.648;2022-12-16T01:45:26;24.23;;;14.23;;
9547;SDS011;4812;51.992;8.648;2022-12-16T01:47:57;21.53;;;15.40;;
9547;SDS011;4812;51.992;8.648;2022-12-16T01:50:26;27.70;;;16.13;;
9547;SDS011;4812;51.992;8.648;2022-12-16T01:52:55;32.53;;;15.20;;
9547;SDS011;4812;51.992;8.648;2022-12-16T01:55:24;26.67;;;16.03;;
9547;SDS011;4812;51.992;8.648;2022-12-16T01:57:55;25.53;;;15.90;;
9547;SDS011;4812;51.992;8.648;2022-12-16T02:00:25;31.37;;;17.10;;
9547;SDS011;4812;51.992;8.648;2022-12-16T02:02:53;23.23;;;13.83;;
9547;SDS011;4812;51.992;8.648;2022-12-16T02:05:21;18.53;;;12.30;;
9547;SDS011;4812;51.992;8.648;2022-12-16T02:07:51;20.80;;;13.47;;
9547;SDS011;4812;51.992;8.648;2022-12-16T02:10:23;22.63;;;13.63;;
9547;SDS011;4812;51.992;8.648;2022-12-16T02:13:07;20.87;;;13.30;;
9547;SDS011;4812;51.992;8.648;2022-12-16T02:15:44;21.40;;;13.07;;
9547;SDS011;4812;51.992;8.648;2022-12-16T02:18:19;21.40;;;12.23;;
9547;SDS011;4812;51.992;8.648;2022-12-16T02:21:05;21.33;;;12.67;;
9547;SDS011;4812;51.992;8.648;2022-12-16T02:23:48;17.73;;;12.23;;
9547;SDS011;4812;51.992;8.648;2022-12-16T02:26:38;23.33;;;13.43;;
9547;SDS011;4812;51.992;8.648;2022-12-16T02:29:30;23.53;;;13.03;;
9547;SDS011;4812;51.992;8.648;2022-12-16T02:32:09;17.67;;;12.73;;
9547;SDS011;4812;51.992;8.648;2022-12-16T02:34:41;20.33;;;12.03;;
9547;SDS011;4812;51.992;8.648;2022-12-16T02:37:17;17.40;;;10.53;;
9547;SDS011;4812;51.992;8.648;2022-12-16T02:39:49;22.00;;;13.63;;
9547;SDS011;4812;51.992;8.648;2022-12-16T02:42:20;19.63;;;12.07;;
9547;SDS011;4812;51.992;8.648;2022-12-16T02:44:54;15.93;;;11.83;;
9547;SDS011;4812;51.992;8.648;2022-12-16T02:47:27;18.23;;;12.00;;
9547;SDS011;4812;51.992;8.648;2022-12-16T02:49:54;17.57;;;11.43;;
9547;SDS011;4812;51.992;8.648;2022-12-16T02:52:23;18.17;;;11.30;;
9547;SDS011;4812;51.992;8.648;2022-12-16T02:54:52;26.93;;;11.87;;
9547;SDS011;4812;51.992;8.648;2022-12-16T02:57:33;17.13;;;12.00;;
9547;SDS011;4812;51.992;8.648;2022-12-16T03:00:09;18.77;;;11.47;;
9547;SDS011;4812;51.992;8.648;2022-12-16T03:02:41;18.30;;;12.40;;
9547;SDS011;4812;51.992;8.648;2022-12-16T03:05:15;19.27;;;11.57;;
9547;SDS011;4812;51.992;8.648;2022-12-16T03:07:46;11.60;;;10.40;;
9547;SDS011;4812;51.992;8.648;2022-12-16T03:10:16;14.07;;;11.37;;
9547;SDS011;4812;51.992;8.648;2022-12-16T03:12:46;15.93;;;11.50;;
9547;SDS011;4812;51.992;8.648;2022-12-16T03:15:15;14.37;;;11.53;;
9547;SDS011;4812;51.992;8.648;2022-12-16T03:17:47;15.47;;;11.43;;
9547;SDS011;4812;51.992;8.648;2022-12-16T03:20:15;20.87;;;12.13;;
9547;SDS011;4812;51.992;8.648;2022-12-16T03:22:45;17.23;;;11.30;;
9547;SDS011;4812;51.992;8.648;2022-12-16T03:25:14;22.00;;;11.63;;
9547;SDS011;4812;51.992;8.648;2022-12-16T03:27:44;19.00;;;10.17;;
9547;SDS011;4812;51.992;8.648;2022-12-16T03:30:16;16.33;;;10.67;;
9547;SDS011;4812;51.992;8.648;2022-12-16T03:32:45;17.97;;;10.57;;
9547;SDS011;4812;51.992;8.648;2022-12-16T03:35:17;16.20;;;10.00;;
9547;SDS011;4812;51.992;8.648;2022-12-16T03:37:47;16.00;;;10.40;;
9547;SDS011;4812;51.992;8.648;2022-12-16T03:40:16;18.67;;;10.73;;
9547;SDS011;4812;51.992;8.648;2022-12-16T03:42:46;14.17;;;9.37;;
9547;SDS011;4812;51.992;8.648;2022-12-16T03:45:15;14.10;;;11.00;;
9547;SDS011;4812;51.992;8.648;2022-12-16T03:47:49;23.47;;;11.87;;
9547;SDS011;4812;51.992;8.648;2022-12-16T03:50:16;19.33;;;11.00;;
9547;SDS011;4812;51.992;8.648;2022-12-16T03:52:46;16.53;;;10.97;;
9547;SDS011;4812;51.992;8.648;2022-12-16T03:55:13;15.70;;;11.37;;
9547;SDS011;4812;51.992;8.648;2022-12-16T03:57:41;25.17;;;12.80;;
9547;SDS011;4812;51.992;8.648;2022-12-16T04:00:09;21.23;;;11.87;;
9547;SDS011;4812;51.992;8.648;2022-12-16T04:02:37;22.20;;;11.70;;
9547;SDS011;4812;51.992;8.648;2022-12-16T04:05:07;22.73;;;13.03;;
9547;SDS011;4812;51.992;8.648;2022-12-16T04:07:35;19.27;;;12.00;;
9547;SDS011;4812;51.992;8.648;2022-12-16T04:10:03;16.67;;;11.33;;
9547;SDS011;4812;51.992;8.648;2022-12-16T04:12:31;15.23;;;11.57;;
9547;SDS011;4812;51.992;8.648;2022-12-16T04:15:16;21.00;;;11.77;;
9547;SDS011;4812;51.992;8.648;2022-12-16T04:17:58;14.13;;;9.67;;
9547;SDS011;4812;51.992;8.648;2022-12-16T04:20:45;14.93;;;11.97;;
9547;SDS011;4812;51.992;8.648;2022-12-16T04:23:31;16.77;;;11.70;;
9547;SDS011;4812;51.992;8.648;2022-12-16T04:26:17;16.00;;;10.63;;
9547;SDS011;4812;51.992;8.648;2022-12-16T04:28:44;15.33;;;10.90;;
9547;SDS011;4812;51.992;8.648;2022-12-16T04:31:12;16.57;;;11.67;;
9547;SDS011;4812;51.992;8.648;2022-12-16T04:33:39;13.07;;;10.97;;
9547;SDS011;4812;51.992;8.648;2022-12-16T04:36:26;21.00;;;12.23;;
9547;SDS011;4812;51.992;8.648;2022-12-16T04:39:11;17.20;;;11.90;;
9547;SDS011;4812;51.992;8.648;2022-12-16T04:41:56;14.37;;;10.87;;
9547;SDS011;4812;51.992;8.648;2022-12-16T04:44:41;28.25;;;18.70;;
9547;SDS011;4812;51.992;8.648;2022-12-16T04:47:26;23.17;;;13.63;;
9547;SDS011;4812;51.992;8.648;2022-12-16T04:50:11;25.13;;;14.27;;
9547;SDS011;4812;51.992;8.648;2022-12-16T04:52:57;16.80;;;11.83;;
9547;SDS011;4812;51.992;8.648;2022-12-16T04:55:42;23.73;;;13.20;;
9547;SDS011;4812;51.992;8.648;2022-12-16T04:58:30;16.77;;;9.83;;
9547;SDS011;4812;51.992;8.648;2022-12-16T05:01:15;12.93;;;9.63;;
9547;SDS011;4812;51.992;8.648;2022-12-16T05:04:01;14.93;;;10.40;;
9547;SDS011;4812;51.992;8.648;2022-12-16T05:06:45;13.30;;;9.20;;
9547;SDS011;4812;51.992;8.648;2022-12-16T05:09:32;17.27;;;10.40;;
9547;SDS011;4812;51.992;8.648;2022-12-16T05:12:17;13.73;;;9.33;;
9547;SDS011;4812;51.992;8.648;2022-12-16T05:15:02;14.70;;;10.07;;
9547;SDS011;4812;51.992;8.648;2022-12-16T05:17:47;17.53;;;12.07;;
9547;SDS011;4812;51.992;8.648;2022-12-16T05:20:32;20.63;;;11.30;;
9547;SDS011;4812;51.992;8.648;2022-12-16T05:23:17;12.77;;;10.90;;
9547;SDS011;4812;51.992;8.648;2022-12-16T05:26:04;18.17;;;10.53;;
9547;SDS011;4812;51.992;8.648;2022-12-16T05:28:49;24.20;;;11.13;;
9547;SDS011;4812;51.992;8.648;2022-12-16T05:31:33;16.77;;;11.80;;
9547;SDS011;4812;51.992;8.648;2022-12-16T05:34:18;17.20;;;10.73;;
9547;SDS011;4812;51.992;8.648;2022-12-16T05:37:03;13.00;;;11.23;;
9547;SDS011;4812;51.992;8.648;2022-12-16T05:39:49;24.07;;;12.87;;
9547;SDS011;4812;51.992;8.648;2022-12-16T05:42:35;15.23;;;11.70;;
9547;SDS011;4812;51.992;8.648;2022-12-16T05:45:20;14.10;;;10.27;;
9547;SDS011;4812;51.992;8.648;2022-12-16T05:48:05;20.40;;;12.30;;
9547;SDS011;4812;51.992;8.648;2022-12-16T05:50:50;16.60;;;9.77;;
9547;SDS011;4812;51.992;8.648;2022-12-16T05:53:35;19.37;;;11.03;;
9547;SDS011;4812;51.992;8.648;2022-12-16T05:56:20;17.93;;;10.70;;
9547;SDS011;4812;51.992;8.648;2022-12-16T05:59:07;20.57;;;12.20;;
9547;SDS011;4812;51.992;8.648;2022-12-16T06:01:52;12.13;;;10.80;;
9547;SDS011;4812;51.992;8.648;2022-12-16T06:04:37;13.10;;;9.93;;
9547;SDS011;4812;51.992;8.648;2022-12-16T06:07:22;14.43;;;10.33;;
9547;SDS011;4812;51.992;8.648;2022-12-16T06:10:07;19.57;;;10.47;;
9547;SDS011;4812;51.992;8.648;2022-12-16T06:12:52;16.07;;;11.60;;
9547;SDS011;4812;51.992;8.648;2022-12-16T06:15:38;14.93;;;10.43;;
9547;SDS011;4812;51.992;8.648;2022-12-16T06:18:33;15.77;;;9.83;;
9547;SDS011;4812;51.992;8.648;2022-12-16T06:21:18;14.40;;;10.87;;
9547;SDS011;4812;51.992;8.648;2022-12-16T06:24:03;21.80;;;12.43;;
9547;SDS011;4812;51.992;8.648;2022-12-16T06:26:48;14.53;;;10.57;;
9547;SDS011;4812;51.992;8.648;2022-12-16T06:29:33;16.60;;;11.50;;
9547;SDS011;4812;51.992;8.648;2022-12-16T06:32:20;19.30;;;12.00;;
9547;SDS011;4812;51.992;8.648;2022-12-16T06:35:05;17.73;;;13.23;;
9547;SDS011;4812;51.992;8.648;2022-12-16T06:37:51;13.10;;;10.80;;
9547;SDS011;4812;51.992;8.648;2022-12-16T06:40:35;18.13;;;12.03;;
9547;SDS011;4812;51.992;8.648;2022-12-16T06:43:21;16.10;;;10.57;;
9547;SDS011;4812;51.992;8.648;2022-12-16T06:46:06;15.43;;;11.37;;
9547;SDS011;4812;51.992;8.648;2022-12-16T06:48:52;12.90;;;9.10;;
9547;SDS011;4812;51.992;8.648;2022-12-16T06:51:37;11.97;;;10.17;;
9547;SDS011;4812;51.992;8.648;2022-12-16T06:54:22;15.20;;;10.87;;
9547;SDS011;4812;51.992;8.648;2022-12-16T06:57:08;18.67;;;11.37;;
9547;SDS011;4812;51.992;8.648;2022-12-16T06:59:52;18.53;;;11.80;;
9547;SDS011;4812;51.992;8.648;2022-12-16T07:02:37;15.57;;;10.87;;
9547;SDS011;4812;51.992;8.648;2022-12-16T07:05:24;17.33;;;11.23;;
9547;SDS011;4812;51.992;8.648;2022-12-16T07:08:09;12.77;;;10.97;;
9547;SDS011;4812;51.992;8.648;2022-12-16T07:10:54;16.37;;;12.63;;
9547;SDS011;4812;51.992;8.648;2022-12-16T07:13:42;13.53;;;10.80;;
9547;SDS011;4812;51.992;8.648;2022-12-16T07:16:28;19.57;;;11.90;;
9547;SDS011;4812;51.992;8.648;2022-12-16T07:19:14;15.83;;;11.80;;
9547;SDS011;4812;51.992;8.648;2022-12-16T07:22:00;15.97;;;11.00;;
9547;SDS011;4812;51.992;8.648;2022-12-16T07:24:45;15.70;;;12.63;;
9547;SDS011;4812;51.992;8.648;2022-12-16T07:27:30;13.37;;;11.73;;
9547;SDS011;4812;51.992;8.648;2022-12-16T07:30:15;16.83;;;12.27;;
9547;SDS011;4812;51.992;8.648;2022-12-16T07:33:00;17.53;;;11.23;;
9547;SDS011;4812;51.992;8.648;2022-12-16T07:35:45;14.63;;;12.07;;
9547;SDS011;4812;51.992;8.648;2022-12-16T07:38:32;17.40;;;12.23;;
9547;SDS011;4812;51.992;8.648;2022-12-16T07:41:17;19.80;;;12.57;;
9547;SDS011;4812;51.992;8.648;2022-12-16T07:44:02;16.37;;;11.33;;
9547;SDS011;4812;51.992;8.648;2022-12-16T07:46:48;14.87;;;11.37;;
9547;SDS011;4812;51.992;8.648;2022-12-16T07:49:46;20.57;;;13.03;;
9547;SDS011;4812;51.992;8.648;2022-12-16T07:52:31;16.63;;;12.33;;
9547;SDS011;4812;51.992;8.648;2022-12-16T07:55:17;15.67;;;11.70;;
9547;SDS011;4812;51.992;8.648;2022-12-16T07:58:03;19.07;;;12.43;;
9547;SDS011;4812;51.992;8.648;2022-12-16T08:00:47;17.80;;;12.10;;
9547;SDS011;4812;51.992;8.648;2022-12-16T08:03:35;21.20;;;12.63;;
9547;SDS011;4812;51.992;8.648;2022-12-16T08:06:21;16.83;;;13.53;;
9547;SDS011;4812;51.992;8.648;2022-12-16T08:09:06;14.73;;;11.93;;
9547;SDS011;4812;51.992;8.648;2022-12-16T08:11:52;17.40;;;11.30;;
9547;SDS011;4812;51.992;8.648;2022-12-16T08:14:37;21.20;;;13.47;;
9547;SDS011;4812;51.992;8.648;2022-12-16T08:17:27;23.27;;;14.53;;
9547;SDS011;4812;51.992;8.648;2022-12-16T08:20:13;20.70;;;13.83;;
9547;SDS011;4812;51.992;8.648;2022-12-16T08:22:57;20.50;;;13.37;;
9547;SDS011;4812;51.992;8.648;2022-12-16T08:25:42;23.03;;;15.00;;
9547;SDS011;4812;51.992;8.648;2022-12-16T08:28:28;28.83;;;14.87;;
9547;SDS011;4812;51.992;8.648;2022-12-16T08:31:13;26.57;;;15.13;;
9547;SDS011;4812;51.992;8.648;2022-12-16T08:33:59;21.90;;;15.40;;
9547;SDS011;4812;51.992;8.648;2022-12-16T08:36:44;24.53;;;15.80;;
9547;SDS011;4812;51.992;8.648;2022-12-16T08:39:40;27.70;;;15.23;;
9547;SDS011;4812;51.992;8.648;2022-12-16T08:42:45;22.37;;;14.30;;
9547;SDS011;4812;51.992;8.648;2022-12-16T08:45:39;28.37;;;16.00;;
9547;SDS011;4812;51.992;8.648;2022-12-16T08:48:24;21.63;;;15.00;;
9547;SDS011;4812;51.992;8.648;2022-12-16T08:51:09;20.83;;;14.87;;
9547;SDS011;4812;51.992;8.648;2022-12-16T08:53:54;28.53;;;14.47;;
9547;SDS011;4812;51.992;8.648;2022-12-16T08:56:39;25.93;;;15.23;;
9547;SDS011;4812;51.992;8.648;2022-12-16T08:59:24;19.90;;;14.60;;
9547;SDS011;4812;51.992;8.648;2022-12-16T09:02:11;21.17;;;14.93;;
9547;SDS011;4812;51.992;8.648;2022-12-16T09:04:56;23.70;;;14.03;;
9547;SDS011;4812;51.992;8.648;2022-12-16T09:07:41;27.70;;;15.43;;
9547;SDS011;4812;51.992;8.648;2022-12-16T09:10:26;31.27;;;17.83;;
9547;SDS011;4812;51.992;8.648;2022-12-16T09:13:12;25.70;;;16.77;;
9547;SDS011;4812;51.992;8.648;2022-12-16T09:15:59;30.33;;;17.50;;
9547;SDS011;4812;51.992;8.648;2022-12-16T09:18:46;27.57;;;17.33;;
9547;SDS011;4812;51.992;8.648;2022-12-16T09:21:31;28.50;;;17.83;;
9547;SDS011;4812;51.992;8.648;2022-12-16T09:24:17;29.83;;;17.23;;
9547;SDS011;4812;51.992;8.648;2022-12-16T09:27:02;24.63;;;17.13;;
9547;SDS011;4812;51.992;8.648;2022-12-16T09:29:47;31.97;;;17.97;;
9547;SDS011;4812;51.992;8.648;2022-12-16T09:32:32;29.30;;;17.97;;
9547;SDS011;4812;51.992;8.648;2022-12-16T09:35:19;34.67;;;17.97;;
9547;SDS011;4812;51.992;8.648;2022-12-16T09:38:04;36.20;;;18.70;;
9547;SDS011;4812;51.992;8.648;2022-12-16T09:40:49;34.33;;;19.03;;
9547;SDS011;4812;51.992;8.648;2022-12-16T09:43:38;36.07;;;19.07;;
9547;SDS011;4812;51.992;8.648;2022-12-16T09:46:28;35.00;;;19.57;;
9547;SDS011;4812;51.992;8.648;2022-12-16T09:49:19;38.10;;;20.30;;
9547;SDS011;4812;51.992;8.648;2022-12-16T09:52:11;36.30;;;20.40;;
9547;SDS011;4812;51.992;8.648;2022-12-16T09:54:58;37.70;;;20.90;;
9547;SDS011;4812;51.992;8.648;2022-12-16T09:57:44;35.70;;;21.40;;
9547;SDS011;4812;51.992;8.648;2022-12-16T10:00:30;37.03;;;21.07;;
9547;SDS011;4812;51.992;8.648;2022-12-16T10:03:15;32.60;;;19.97;;
9547;SDS011;4812;51.992;8.648;2022-12-16T10:06:06;38.00;;;21.07;;
9547;SDS011;4812;51.992;8.648;2022-12-16T10:08:57;35.90;;;19.83;;
9547;SDS011;4812;51.992;8.648;2022-12-16T10:11:44;34.07;;;20.43;;
9547;SDS011;4812;51.992;8.648;2022-12-16T10:14:37;27.83;;;17.83;;
9547;SDS011;4812;51.992;8.648;2022-12-16T10:17:26;31.23;;;19.27;;
9547;SDS011;4812;51.992;8.648;2022-12-16T10:20:12;37.13;;;19.33;;
9547;SDS011;4812;51.992;8.648;2022-12-16T10:23:09;36.03;;;20.43;;
9547;SDS011;4812;51.992;8.648;2022-12-16T10:26:01;37.23;;;19.60;;
9547;SDS011;4812;51.992;8.648;2022-12-16T10:28:50;32.93;;;19.40;;
9547;SDS011;4812;51.992;8.648;2022-12-16T10:31:37;36.17;;;19.60;;
9547;SDS011;4812;51.992;8.648;2022-12-16T10:34:24;40.17;;;20.73;;
9547;SDS011;4812;51.992;8.648;2022-12-16T10:37:12;33.27;;;20.33;;
9547;SDS011;4812;51.992;8.648;2022-12-16T10:40:01;32.53;;;20.17;;
9547;SDS011;4812;51.992;8.648;2022-12-16T10:43:03;34.30;;;20.60;;
9547;SDS011;4812;51.992;8.648;2022-12-16T10:45:51;32.40;;;20.00;;
9547;SDS011;4812;51.992;8.648;2022-12-16T10:48:45;31.70;;;19.90;;
9547;SDS011;4812;51.992;8.648;2022-12-16T10:51:30;37.17;;;22.57;;
9547;SDS011;4812;51.992;8.648;2022-12-16T10:54:29;39.30;;;23.43;;
9547;SDS011;4812;51.992;8.648;2022-12-16T10:57:22;40.40;;;23.00;;
9547;SDS011;4812;51.992;8.648;2022-12-16T11:00:13;36.53;;;22.30;;
9547;SDS011;4812;51.992;8.648;2022-12-16T11:06:04;37.30;;;22.47;;
9547;SDS011;4812;51.992;8.648;2022-12-16T11:08:50;38.37;;;21.10;;
9547;SDS011;4812;51.992;8.648;2022-12-16T11:11:35;33.57;;;20.83;;
9547;SDS011;4812;51.992;8.648;2022-12-16T11:14:22;31.77;;;21.60;;
9547;SDS011;4812;51.992;8.648;2022-12-16T11:17:29;38.77;;;22.33;;
9547;SDS011;4812;51.992;8.648;2022-12-16T11:20:15;44.27;;;22.93;;
9547;SDS011;4812;51.992;8.648;2022-12-16T11:26:05;37.73;;;24.30;;
9547;SDS011;4812;51.992;8.648;2022-12-16T11:29:02;36.43;;;23.63;;
9547;SDS011;4812;51.992;8.648;2022-12-16T11:31:50;38.27;;;24.27;;
9547;SDS011;4812;51.992;8.648;2022-12-16T11:34:40;45.57;;;24.83;;
9547;SDS011;4812;51.992;8.648;2022-12-16T11:37:27;43.00;;;22.77;;
9547;SDS011;4812;51.992;8.648;2022-12-16T11:40:13;38.47;;;23.20;;
9547;SDS011;4812;51.992;8.648;2022-12-16T11:43:00;39.30;;;25.10;;
9547;SDS011;4812;51.992;8.648;2022-12-16T11:45:46;38.33;;;24.17;;
9547;SDS011;4812;51.992;8.648;2022-12-16T11:48:35;39.33;;;24.00;;
9547;SDS011;4812;51.992;8.648;2022-12-16T11:51:23;35.33;;;23.03;;
9547;SDS011;4812;51.992;8.648;2022-12-16T11:54:12;40.60;;;24.10;;
9547;SDS011;4812;51.992;8.648;2022-12-16T11:56:59;34.80;;;22.57;;
9547;SDS011;4812;51.992;8.648;2022-12-16T11:59:48;39.17;;;23.27;;
9547;SDS011;4812;51.992;8.648;2022-12-16T12:02:37;43.60;;;23.77;;
9547;SDS011;4812;51.992;8.648;2022-12-16T12:05:27;43.13;;;23.37;;
9547;SDS011;4812;51.992;8.648;2022-12-16T12:08:16;40.13;;;23.87;;
9547;SDS011;4812;51.992;8.648;2022-12-16T12:11:05;33.10;;;22.03;;
9547;SDS011;4812;51.992;8.648;2022-12-16T12:13:57;36.77;;;22.10;;
9547;SDS011;4812;51.992;8.648;2022-12-16T12:16:52;32.77;;;21.87;;
9547;SDS011;4812;51.992;8.648;2022-12-16T12:19:48;30.53;;;20.67;;
9547;SDS011;4812;51.992;8.648;2022-12-16T12:22:40;34.73;;;22.10;;
9547;SDS011;4812;51.992;8.648;2022-12-16T12:25:29;35.00;;;20.30;;
9547;SDS011;4812;51.992;8.648;2022-12-16T12:28:30;34.03;;;21.17;;
9547;SDS011;4812;51.992;8.648;2022-12-16T12:31:27;35.40;;;21.87;;
9547;SDS011;4812;51.992;8.648;2022-12-16T12:34:17;28.57;;;19.90;;
9547;SDS011;4812;51.992;8.648;2022-12-16T12:37:07;35.30;;;21.63;;
9547;SDS011;4812;51.992;8.648;2022-12-16T12:39:58;27.87;;;20.70;;
9547;SDS011;4812;51.992;8.648;2022-12-16T12:42:49;31.07;;;20.10;;
9547;SDS011;4812;51.992;8.648;2022-12-16T12:45:43;27.53;;;20.33;;
9547;SDS011;4812;51.992;8.648;2022-12-16T12:48:36;29.43;;;20.80;;
9547;SDS011;4812;51.992;8.648;2022-12-16T12:51:27;28.83;;;20.07;;
9547;SDS011;4812;51.992;8.648;2022-12-16T12:54:17;30.07;;;20.53;;
9547;SDS011;4812;51.992;8.648;2022-12-16T12:57:07;30.87;;;21.50;;
9547;SDS011;4812;51.992;8.648;2022-12-16T12:59:55;30.73;;;21.37;;
9547;SDS011;4812;51.992;8.648;2022-12-16T13:02:44;32.13;;;20.80;;
9547;SDS011;4812;51.992;8.648;2022-12-16T13:05:32;29.43;;;19.70;;
9547;SDS011;4812;51.992;8.648;2022-12-16T13:11:26;29.07;;;19.97;;
9547;SDS011;4812;51.992;8.648;2022-12-16T13:17:28;31.07;;;20.37;;
9547;SDS011;4812;51.992;8.648;2022-12-16T13:20:34;29.73;;;20.03;;
9547;SDS011;4812;51.992;8.648;2022-12-16T13:23:22;29.37;;;18.67;;
9547;SDS011;4812;51.992;8.648;2022-12-16T13:26:12;31.23;;;19.63;;
9547;SDS011;4812;51.992;8.648;2022-12-16T13:29:01;31.77;;;19.17;;
9547;SDS011;4812;51.992;8.648;2022-12-16T13:31:58;29.03;;;20.73;;
9547;SDS011;4812;51.992;8.648;2022-12-16T13:34:45;29.73;;;19.40;;
9547;SDS011;4812;51.992;8.648;2022-12-16T13:37:49;31.50;;;19.43;;
9547;SDS011;4812;51.992;8.648;2022-12-16T13:40:46;27.77;;;19.53;;
9547;SDS011;4812;51.992;8.648;2022-12-16T13:43:43;28.47;;;18.87;;
9547;SDS011;4812;51.992;8.648;2022-12-16T13:46:40;27.27;;;18.97;;
9547;SDS011;4812;51.992;8.648;2022-12-16T13:49:38;28.17;;;18.67;;
9547;SDS011;4812;51.992;8.648;2022-12-16T13:52:29;26.93;;;18.40;;
9547;SDS011;4812;51.992;8.648;2022-12-16T13:55:23;29.97;;;19.70;;
9547;SDS011;4812;51.992;8.648;2022-12-16T13:58:13;25.90;;;18.03;;
9547;SDS011;4812;51.992;8.648;2022-12-16T14:01:04;24.23;;;17.50;;
9547;SDS011;4812;51.992;8.648;2022-12-16T14:03:53;23.77;;;17.30;;
9547;SDS011;4812;51.992;8.648;2022-12-16T14:06:42;28.50;;;17.97;;
9547;SDS011;4812;51.992;8.648;2022-12-16T14:09:35;26.93;;;17.93;;
9547;SDS011;4812;51.992;8.648;2022-12-16T14:15:35;26.77;;;17.03;;
9547;SDS011;4812;51.992;8.648;2022-12-16T14:18:27;25.13;;;17.40;;
9547;SDS011;4812;51.992;8.648;2022-12-16T14:21:17;27.77;;;16.13;;
9547;SDS011;4812;51.992;8.648;2022-12-16T14:24:05;22.80;;;16.47;;
9547;SDS011;4812;51.992;8.648;2022-12-16T14:27:10;27.30;;;17.37;;
9547;SDS011;4812;51.992;8.648;2022-12-16T14:29:57;27.50;;;16.70;;
9547;SDS011;4812;51.992;8.648;2022-12-16T14:32:42;23.80;;;16.70;;
9547;SDS011;4812;51.992;8.648;2022-12-16T14:35:27;26.10;;;16.53;;
9547;SDS011;4812;51.992;8.648;2022-12-16T14:38:16;24.37;;;15.57;;
9547;SDS011;4812;51.992;8.648;2022-12-16T14:41:04;27.30;;;16.87;;
9547;SDS011;4812;51.992;8.648;2022-12-16T14:43:51;24.27;;;15.17;;
9547;SDS011;4812;51.992;8.648;2022-12-16T14:46:36;29.03;;;15.17;;
9547;SDS011;4812;51.992;8.648;2022-12-16T14:49:22;25.50;;;15.80;;
9547;SDS011;4812;51.992;8.648;2022-12-16T14:52:15;25.50;;;16.20;;
9547;SDS011;4812;51.992;8.648;2022-12-16T14:55:04;28.23;;;15.73;;
9547;SDS011;4812;51.992;8.648;2022-12-16T14:58:03;31.37;;;16.80;;
9547;SDS011;4812;51.992;8.648;2022-12-16T15:00:51;27.07;;;16.53;;
9547;SDS011;4812;51.992;8.648;2022-12-16T15:03:41;30.17;;;17.43;;
9547;SDS011;4812;51.992;8.648;2022-12-16T15:06:29;26.67;;;16.50;;
9547;SDS011;4812;51.992;8.648;2022-12-16T15:09:18;31.63;;;17.30;;
9547;SDS011;4812;51.992;8.648;2022-12-16T15:12:06;27.83;;;17.23;;
9547;SDS011;4812;51.992;8.648;2022-12-16T15:14:53;31.80;;;17.60;;
9547;SDS011;4812;51.992;8.648;2022-12-16T15:17:46;27.33;;;17.57;;
9547;SDS011;4812;51.992;8.648;2022-12-16T15:20:37;30.20;;;16.37;;
9547;SDS011;4812;51.992;8.648;2022-12-16T15:23:27;26.20;;;16.37;;
9547;SDS011;4812;51.992;8.648;2022-12-16T15:26:15;30.77;;;17.40;;
9547;SDS011;4812;51.992;8.648;2022-12-16T15:29:01;29.10;;;17.03;;
9547;SDS011;4812;51.992;8.648;2022-12-16T15:31:46;38.30;;;24.93;;
9547;SDS011;4812;51.992;8.648;2022-12-16T15:34:35;40.83;;;21.93;;
9547;SDS011;4812;51.992;8.648;2022-12-16T15:37:23;37.57;;;22.33;;
9547;SDS011;4812;51.992;8.648;2022-12-16T15:40:20;34.97;;;19.93;;
9547;SDS011;4812;51.992;8.648;2022-12-16T15:43:20;33.80;;;21.10;;
9547;SDS011;4812;51.992;8.648;2022-12-16T15:46:15;34.30;;;19.43;;
9547;SDS011;4812;51.992;8.648;2022-12-16T15:49:01;31.40;;;18.37;;
9547;SDS011;4812;51.992;8.648;2022-12-16T15:51:49;23.63;;;15.70;;
9547;SDS011;4812;51.992;8.648;2022-12-16T15:54:48;27.50;;;18.40;;
9547;SDS011;4812;51.992;8.648;2022-12-16T15:57:34;30.03;;;18.07;;
9547;SDS011;4812;51.992;8.648;2022-12-16T16:00:21;28.27;;;18.33;;
9547;SDS011;4812;51.992;8.648;2022-12-16T16:03:17;32.27;;;21.20;;
9547;SDS011;4812;51.992;8.648;2022-12-16T16:06:04;34.40;;;19.57;;
9547;SDS011;4812;51.992;8.648;2022-12-16T16:09:00;40.10;;;22.07;;
9547;SDS011;4812;51.992;8.648;2022-12-16T16:11:45;30.27;;;19.20;;
9547;SDS011;4812;51.992;8.648;2022-12-16T16:14:30;26.93;;;17.60;;
9547;SDS011;4812;51.992;8.648;2022-12-16T16:17:19;27.07;;;16.77;;
9547;SDS011;4812;51.992;8.648;2022-12-16T16:20:06;33.43;;;18.07;;
9547;SDS011;4812;51.992;8.648;2022-12-16T16:22:53;28.60;;;17.67;;
9547;SDS011;4812;51.992;8.648;2022-12-16T16:25:36;29.03;;;18.23;;
9547;SDS011;4812;51.992;8.648;2022-12-16T16:28:28;27.47;;;17.70;;
9547;SDS011;4812;51.992;8.648;2022-12-16T16:31:13;36.13;;;19.90;;
9547;SDS011;4812;51.992;8.648;2022-12-16T16:33:58;37.87;;;19.10;;
9547;SDS011;4812;51.992;8.648;2022-12-16T16:36:43;31.53;;;17.77;;
9547;SDS011;4812;51.992;8.648;2022-12-16T16:39:28;27.33;;;15.33;;